Time;durP1;ratioP1;P1;durP2;ratioP2;P2;SDS_P1;SDS_P2;PMS_P1;PMS_P2;Temp;Humidity;BMP_temperature;BMP_pressure;BME280_temperature;BME280_humidity;BME280_pressure;Samples;Min_cycle;Max_cycle;Signal;HPM_P1;HPM_P2
2023/01/05 00:00:26;;;;;;;18.67;5.32;;;;;;;;;;5050777;28;20041;-72
2023/01/05 00:02:52;;;;;;;24.58;4.70;;;;;;;;;;5048916;28;20059;-72
2023/01/05 00:05:18;;;;;;;22.23;5.38;;;;;;;;;;5051436;28;20048;-72
2023/01/05 00:07:44;;;;;;;23.90;5.45;;;;;;;;;;5047310;28;20418;-72
2023/01/05 00:22:29;;;;;;;20.52;4.90;;;;;;;;;;5048947;28;20041;-72
2023/01/05 00:23:57;;;;;;;23.10;5.07;;;;;;;;;;5043384;28;20045;-72
2023/01/05 00:26:23;;;;;;;21.17;4.85;;;;;;;;;;5045923;28;20106;-72
2023/01/05 00:28:49;;;;;;;19.30;4.95;;;;;;;;;;5045096;28;20037;-72
2023/01/05 00:31:15;;;;;;;20.15;5.18;;;;;;;;;;5047874;28;20045;-72
2023/01/05 00:33:41;;;;;;;20.63;5.55;;;;;;;;;;5049713;28;20041;-72
2023/01/05 00:36:10;;;;;;;19.17;4.38;;;;;;;;;;5043226;28;20406;-72
2023/01/05 00:38:36;;;;;;;21.52;5.03;;;;;;;;;;5047901;28;20495;-72
2023/01/05 00:41:02;;;;;;;21.05;5.03;;;;;;;;;;5047350;28;20072;-72
2023/01/05 00:43:28;;;;;;;19.30;4.78;;;;;;;;;;5049275;28;20076;-72
2023/01/05 00:45:54;;;;;;;16.75;4.88;;;;;;;;;;5079418;28;20123;-72
2023/01/05 00:48:20;;;;;;;20.05;4.93;;;;;;;;;;5046001;28;20127;-72
2023/01/05 00:50:49;;;;;;;21.10;5.22;;;;;;;;;;5046215;28;20043;-72
2023/01/05 00:53:15;;;;;;;22.02;5.53;;;;;;;;;;5049893;28;20071;-72
2023/01/05 00:55:41;;;;;;;25.90;5.55;;;;;;;;;;5046374;28;20037;-72
2023/01/05 00:58:07;;;;;;;23.92;5.22;;;;;;;;;;5049090;28;20074;-72
2023/01/05 01:00:33;;;;;;;23.10;4.88;;;;;;;;;;5051178;28;20430;-72
2023/01/05 01:02:59;;;;;;;23.73;6.03;;;;;;;;;;5043868;28;20042;-72
2023/01/05 01:05:25;;;;;;;22.48;4.63;;;;;;;;;;5050255;28;20116;-72
2023/01/05 01:07:52;;;;;;;17.63;5.05;;;;;;;;;;5042351;28;20052;-72
2023/01/05 01:10:18;;;;;;;31.20;6.25;;;;;;;;;;5041584;28;20046;-72
2023/01/05 01:12:44;;;;;;;21.52;4.95;;;;;;;;;;5046626;28;20098;-72
2023/01/05 01:15:10;;;;;;;17.52;4.95;;;;;;;;;;5045671;28;20041;-72
2023/01/05 01:17:36;;;;;;;22.15;4.93;;;;;;;;;;5051269;28;20041;-72
2023/01/05 01:20:03;;;;;;;19.08;4.78;;;;;;;;;;5053050;28;20473;-72
2023/01/05 01:22:29;;;;;;;20.10;5.35;;;;;;;;;;5046650;28;20403;-72
2023/01/05 01:24:55;;;;;;;29.00;5.35;;;;;;;;;;5051745;28;20230;-72
2023/01/05 01:27:21;;;;;;;19.27;4.95;;;;;;;;;;5050233;28;20194;-72
2023/01/05 01:29:47;;;;;;;19.83;4.75;;;;;;;;;;5054028;28;20087;-72
2023/01/05 01:32:13;;;;;;;22.20;5.38;;;;;;;;;;5047454;28;20412;-72
2023/01/05 01:34:39;;;;;;;23.67;5.55;;;;;;;;;;5052701;28;20104;-72
2023/01/05 01:37:05;;;;;;;19.65;4.90;;;;;;;;;;5050966;28;20136;-72
2023/01/05 01:39:31;;;;;;;26.38;6.10;;;;;;;;;;5049212;28;20455;-71
2023/01/05 01:41:57;;;;;;;24.02;6.10;;;;;;;;;;5049153;28;20135;-72
2023/01/05 01:44:42;;;;;;;17.77;4.65;;;;;;;;;;5052075;28;20045;-72
2023/01/05 01:47:14;;;;;;;25.83;5.63;;;;;;;;;;5049734;28;20549;-72
2023/01/05 01:49:40;;;;;;;23.67;4.93;;;;;;;;;;5052516;28;20041;-72
2023/01/05 01:52:07;;;;;;;18.23;5.07;;;;;;;;;;5045880;28;20544;-72
2023/01/05 01:54:33;;;;;;;16.50;4.38;;;;;;;;;;5050654;28;20061;-72
2023/01/05 01:56:59;;;;;;;19.45;5.05;;;;;;;;;;5050336;28;20049;-72
2023/01/05 01:59:26;;;;;;;23.15;5.93;;;;;;;;;;5047036;28;20056;-72
2023/01/05 02:01:53;;;;;;;29.67;6.28;;;;;;;;;;5053129;28;20491;-72
2023/01/05 02:04:20;;;;;;;18.15;4.60;;;;;;;;;;5053882;28;20044;-72
2023/01/05 02:06:46;;;;;;;19.55;5.07;;;;;;;;;;5048746;28;20055;-72
2023/01/05 02:09:12;;;;;;;20.17;5.28;;;;;;;;;;5043895;28;20109;-72
2023/01/05 02:11:41;;;;;;;24.65;6.03;;;;;;;;;;5048618;28;20076;-72
2023/01/05 02:14:16;;;;;;;18.77;5.20;;;;;;;;;;5079434;28;20491;-72
2023/01/05 02:16:45;;;;;;;25.63;6.70;;;;;;;;;;5051480;28;20524;-72
2023/01/05 02:19:33;;;;;;;25.67;5.80;;;;;;;;;;5049879;28;20064;-72
2023/01/05 02:22:18;;;;;;;23.75;5.47;;;;;;;;;;5046028;28;20455;-72
2023/01/05 02:25:06;;;;;;;26.65;5.30;;;;;;;;;;5051583;28;20049;-72
2023/01/05 02:27:49;;;;;;;23.73;5.22;;;;;;;;;;5046448;28;20052;-72
2023/01/05 02:30:18;;;;;;;22.37;4.73;;;;;;;;;;5049950;28;20080;-72
2023/01/05 02:33:07;;;;;;;20.52;4.82;;;;;;;;;;5053370;28;20041;-72
2023/01/05 02:35:42;;;;;;;22.85;5.50;;;;;;;;;;5047332;28;20057;-72
2023/01/05 02:38:17;;;;;;;21.23;4.95;;;;;;;;;;5048378;28;20123;-71
2023/01/05 02:40:47;;;;;;;24.50;5.07;;;;;;;;;;5052417;28;20063;-72
2023/01/05 02:43:14;;;;;;;22.65;4.90;;;;;;;;;;5041733;28;20048;-72
2023/01/05 02:45:40;;;;;;;25.05;4.85;;;;;;;;;;5048236;28;20131;-72
2023/01/05 02:48:06;;;;;;;22.65;6.47;;;;;;;;;;5048024;28;20044;-71
2023/01/05 02:50:39;;;;;;;26.92;6.38;;;;;;;;;;5057774;28;20055;-72
2023/01/05 02:53:11;;;;;;;25.55;5.93;;;;;;;;;;5051685;28;20051;-72
2023/01/05 02:55:41;;;;;;;20.55;5.03;;;;;;;;;;5052790;28;20049;-72
2023/01/05 02:58:10;;;;;;;27.58;5.28;;;;;;;;;;5053420;28;20045;-72
2023/01/05 03:00:39;;;;;;;24.50;5.65;;;;;;;;;;5047708;28;20484;-72
2023/01/05 03:03:12;;;;;;;23.73;5.60;;;;;;;;;;5050959;28;20056;-72
2023/01/05 03:05:45;;;;;;;21.35;5.43;;;;;;;;;;5051875;28;20479;-72
2023/01/05 03:08:21;;;;;;;18.48;4.47;;;;;;;;;;5052132;28;20040;-72
2023/01/05 03:14:08;;;;;;;23.27;4.95;;;;;;;;;;5048689;28;20052;-72
2023/01/05 03:16:35;;;;;;;27.83;6.13;;;;;;;;;;5050506;28;20091;-72
2023/01/05 03:35:38;;;;;;;24.98;6.03;;;;;;;;;;5048735;28;20450;-72
2023/01/05 03:38:18;;;;;;;23.42;5.07;;;;;;;;;;5049954;28;20053;-72
2023/01/05 03:40:45;;;;;;;21.83;5.50;;;;;;;;;;5042322;28;20130;-72
2023/01/05 03:43:12;;;;;;;24.35;6.13;;;;;;;;;;5048348;28;20426;-72
2023/01/05 03:45:43;;;;;;;22.88;5.43;;;;;;;;;;5044183;28;20048;-72
2023/01/05 03:48:09;;;;;;;24.77;6.50;;;;;;;;;;5056265;28;20051;-72
2023/01/05 03:50:35;;;;;;;28.48;7.22;;;;;;;;;;5047991;28;20036;-72
2023/01/05 03:53:01;;;;;;;24.98;5.65;;;;;;;;;;5056045;28;20079;-72
2023/01/05 03:55:27;;;;;;;25.13;6.13;;;;;;;;;;5046117;28;20492;-72
2023/01/05 03:57:54;;;;;;;26.52;4.75;;;;;;;;;;5050785;28;20352;-72
2023/01/05 04:00:20;;;;;;;26.40;6.35;;;;;;;;;;5044423;28;20072;-72
2023/01/05 04:02:46;;;;;;;28.08;5.82;;;;;;;;;;5046610;28;20041;-72
2023/01/05 04:05:12;;;;;;;25.05;6.45;;;;;;;;;;5048914;28;20102;-72
2023/01/05 04:07:38;;;;;;;24.88;6.07;;;;;;;;;;5047964;28;20045;-72
2023/01/05 04:10:05;;;;;;;25.05;5.65;;;;;;;;;;5046404;28;20369;-72
2023/01/05 04:12:31;;;;;;;27.15;6.38;;;;;;;;;;5049432;28;20071;-72
2023/01/05 04:14:57;;;;;;;21.33;5.72;;;;;;;;;;5045127;28;20036;-72
2023/01/05 04:17:23;;;;;;;21.13;5.55;;;;;;;;;;5042056;28;20107;-72
2023/01/05 04:19:49;;;;;;;26.13;6.10;;;;;;;;;;5047337;28;20486;-72
2023/01/05 04:22:15;;;;;;;27.02;5.88;;;;;;;;;;5052760;28;20068;-72
2023/01/05 04:24:41;;;;;;;28.85;7.22;;;;;;;;;;5051482;28;20037;-72
2023/01/05 04:27:07;;;;;;;28.70;6.90;;;;;;;;;;5054376;28;20102;-71
2023/01/05 04:29:33;;;;;;;26.40;5.72;;;;;;;;;;5047595;28;20040;-71
2023/01/05 04:31:59;;;;;;;26.63;6.32;;;;;;;;;;5052847;28;20075;-72
2023/01/05 04:34:25;;;;;;;30.58;6.82;;;;;;;;;;5046294;28;20076;-72
2023/01/05 04:36:51;;;;;;;21.13;6.65;;;;;;;;;;5048180;28;20049;-72
2023/01/05 04:39:17;;;;;;;25.48;5.78;;;;;;;;;;5050244;28;20053;-71
2023/01/05 04:41:43;;;;;;;23.80;5.20;;;;;;;;;;5040145;28;20051;-72
2023/01/05 04:44:10;;;;;;;25.00;5.93;;;;;;;;;;5047399;28;20128;-72
2023/01/05 04:46:36;;;;;;;19.65;5.95;;;;;;;;;;5044413;28;20048;-72
2023/01/05 04:49:02;;;;;;;24.13;5.72;;;;;;;;;;5051645;28;20094;-72
2023/01/05 04:51:28;;;;;;;22.52;5.95;;;;;;;;;;5049966;28;20499;-72
2023/01/05 04:53:54;;;;;;;24.95;5.75;;;;;;;;;;5044300;28;20500;-71
2023/01/05 04:56:20;;;;;;;26.60;6.55;;;;;;;;;;5046917;28;20103;-72
2023/01/05 04:58:46;;;;;;;25.83;5.50;;;;;;;;;;5042752;28;20043;-72
2023/01/05 05:01:12;;;;;;;19.10;5.95;;;;;;;;;;5050496;28;20083;-72
2023/01/05 05:03:38;;;;;;;25.50;6.78;;;;;;;;;;5049658;28;20056;-72
2023/01/05 05:06:04;;;;;;;27.17;5.60;;;;;;;;;;5047494;28;20041;-72
2023/01/05 05:08:30;;;;;;;26.60;6.53;;;;;;;;;;5043731;28;20551;-72
2023/01/05 05:10:56;;;;;;;24.38;6.95;;;;;;;;;;5049305;28;20120;-72
2023/01/05 05:13:22;;;;;;;25.75;6.35;;;;;;;;;;5046737;28;20180;-72
2023/01/05 05:15:48;;;;;;;23.90;6.00;;;;;;;;;;5048523;28;20055;-72
2023/01/05 05:18:14;;;;;;;27.50;5.70;;;;;;;;;;5045513;28;20052;-72
2023/01/05 05:20:42;;;;;;;29.40;6.38;;;;;;;;;;5050041;28;20049;-72
2023/01/05 05:23:08;;;;;;;24.73;6.88;;;;;;;;;;5051047;28;20825;-72
2023/01/05 05:25:34;;;;;;;26.58;6.40;;;;;;;;;;5047333;28;20412;-72
2023/01/05 05:28:00;;;;;;;20.58;5.78;;;;;;;;;;5046407;28;20045;-72
2023/01/05 05:30:26;;;;;;;24.52;6.68;;;;;;;;;;5050766;28;20037;-72
2023/01/05 05:32:52;;;;;;;25.92;6.85;;;;;;;;;;5046375;28;20044;-72
2023/01/05 05:35:18;;;;;;;26.08;5.57;;;;;;;;;;5044973;28;20060;-72
2023/01/05 05:37:44;;;;;;;23.27;6.35;;;;;;;;;;5047463;28;20407;-72
2023/01/05 05:40:10;;;;;;;26.02;6.60;;;;;;;;;;5042074;28;20036;-72
2023/01/05 05:42:36;;;;;;;33.90;5.97;;;;;;;;;;5046926;28;20037;-72
2023/01/05 05:45:02;;;;;;;26.58;6.15;;;;;;;;;;5043927;28;20048;-72
2023/01/05 05:47:28;;;;;;;28.70;6.65;;;;;;;;;;5047183;28;20075;-72
2023/01/05 05:49:54;;;;;;;26.42;5.45;;;;;;;;;;5049054;28;20494;-72
2023/01/05 05:52:20;;;;;;;24.38;6.07;;;;;;;;;;5046771;28;20049;-72
2023/01/05 05:54:46;;;;;;;23.48;6.00;;;;;;;;;;5048817;28;20056;-71
2023/01/05 05:57:12;;;;;;;23.33;5.97;;;;;;;;;;5044831;28;20048;-72
2023/01/05 05:59:38;;;;;;;29.90;6.57;;;;;;;;;;5047226;28;20056;-72
2023/01/05 06:02:04;;;;;;;28.30;6.15;;;;;;;;;;5047003;28;20029;-71
2023/01/05 06:04:30;;;;;;;30.52;5.72;;;;;;;;;;5050235;28;20049;-72
2023/01/05 06:06:56;;;;;;;26.45;6.03;;;;;;;;;;5050353;28;20373;-72
2023/01/05 06:09:23;;;;;;;28.23;5.78;;;;;;;;;;5043081;28;20045;-72
2023/01/05 06:11:49;;;;;;;21.67;5.30;;;;;;;;;;5045962;28;20484;-72
2023/01/05 06:14:15;;;;;;;24.80;5.28;;;;;;;;;;5048492;28;20431;-72
2023/01/05 06:16:41;;;;;;;24.20;5.43;;;;;;;;;;5046870;28;20072;-72
2023/01/05 06:19:09;;;;;;;22.23;5.53;;;;;;;;;;5049510;28;20471;-72
2023/01/05 06:21:35;;;;;;;23.25;5.15;;;;;;;;;;5051711;28;20387;-72
2023/01/05 06:24:01;;;;;;;22.73;6.03;;;;;;;;;;5052708;28;20098;-72
2023/01/05 06:26:27;;;;;;;16.77;5.40;;;;;;;;;;5044529;28;20044;-72
2023/01/05 06:28:53;;;;;;;21.90;4.80;;;;;;;;;;5049346;28;20552;-72
2023/01/05 06:31:19;;;;;;;18.63;5.30;;;;;;;;;;5050788;28;20069;-72
2023/01/05 06:33:45;;;;;;;25.92;5.53;;;;;;;;;;5049467;28;20084;-71
2023/01/05 06:36:11;;;;;;;18.80;5.90;;;;;;;;;;5079566;28;20059;-72
2023/01/05 06:38:37;;;;;;;21.67;5.70;;;;;;;;;;5051866;28;20041;-72
2023/01/05 06:41:03;;;;;;;19.88;5.75;;;;;;;;;;5051660;28;20033;-72
2023/01/05 06:43:29;;;;;;;21.20;5.40;;;;;;;;;;5042224;28;20114;-72
2023/01/05 06:45:55;;;;;;;26.00;6.47;;;;;;;;;;5044555;28;20036;-72
2023/01/05 06:48:21;;;;;;;24.88;5.75;;;;;;;;;;5053308;28;20488;-72
2023/01/05 06:50:47;;;;;;;18.77;5.80;;;;;;;;;;5053495;28;20364;-72
2023/01/05 06:53:13;;;;;;;20.83;5.18;;;;;;;;;;5049640;28;20064;-71
2023/01/05 06:55:39;;;;;;;24.20;5.93;;;;;;;;;;5076236;28;20041;-72
2023/01/05 06:58:05;;;;;;;22.80;5.00;;;;;;;;;;5040506;28;20498;-72
2023/01/05 07:00:31;;;;;;;21.73;5.15;;;;;;;;;;5043152;28;20058;-72
2023/01/05 07:02:57;;;;;;;21.65;4.80;;;;;;;;;;5044796;28;20079;-72
2023/01/05 07:05:23;;;;;;;22.42;5.70;;;;;;;;;;5046516;28;20081;-72
2023/01/05 07:07:50;;;;;;;20.98;5.90;;;;;;;;;;5041877;28;20044;-72
2023/01/05 07:10:16;;;;;;;21.92;5.63;;;;;;;;;;5034955;28;20052;-72
2023/01/05 07:12:42;;;;;;;16.40;5.10;;;;;;;;;;5045320;28;20045;-72
2023/01/05 07:15:08;;;;;;;19.77;4.47;;;;;;;;;;5078447;28;20040;-72
2023/01/05 07:17:35;;;;;;;18.85;4.70;;;;;;;;;;5042172;28;20040;-72
2023/01/05 07:20:01;;;;;;;20.73;5.20;;;;;;;;;;5086502;28;20041;-72
2023/01/05 07:22:29;;;;;;;20.63;5.53;;;;;;;;;;5046188;28;20125;-72
2023/01/05 07:24:56;;;;;;;25.40;5.13;;;;;;;;;;5044681;28;20044;-71
2023/01/05 07:27:22;;;;;;;23.05;5.38;;;;;;;;;;5055751;28;20072;-72
2023/01/05 07:29:48;;;;;;;23.42;6.10;;;;;;;;;;5049380;28;20071;-72
2023/01/05 07:32:14;;;;;;;27.58;5.53;;;;;;;;;;5046114;28;20048;-72
2023/01/05 07:34:40;;;;;;;31.33;6.65;;;;;;;;;;5053318;28;20060;-72
2023/01/05 07:37:06;;;;;;;22.83;5.22;;;;;;;;;;5045120;28;20044;-72
2023/01/05 07:39:32;;;;;;;29.85;5.88;;;;;;;;;;5046428;28;20057;-72
2023/01/05 07:41:58;;;;;;;24.30;5.28;;;;;;;;;;5046601;28;20037;-72
2023/01/05 07:44:24;;;;;;;22.85;5.93;;;;;;;;;;5057349;28;20075;-72
2023/01/05 07:46:50;;;;;;;21.65;5.50;;;;;;;;;;5062707;28;20034;-72
2023/01/05 07:49:16;;;;;;;21.65;5.13;;;;;;;;;;5057700;28;20052;-72
2023/01/05 07:51:42;;;;;;;22.10;5.60;;;;;;;;;;5057870;28;20134;-72
2023/01/05 07:54:08;;;;;;;24.58;5.50;;;;;;;;;;5055438;28;20083;-72
2023/01/05 07:56:34;;;;;;;21.02;5.03;;;;;;;;;;5048815;28;20059;-72
2023/01/05 07:59:00;;;;;;;21.30;6.22;;;;;;;;;;5048720;28;20439;-72
2023/01/05 08:01:26;;;;;;;26.10;5.65;;;;;;;;;;5043933;28;20049;-73
2023/01/05 08:03:52;;;;;;;24.13;5.43;;;;;;;;;;5056677;28;20040;-72
2023/01/05 08:06:19;;;;;;;22.30;5.32;;;;;;;;;;5055114;28;20194;-72
2023/01/05 08:08:46;;;;;;;20.35;5.63;;;;;;;;;;5046290;28;20053;-72
2023/01/05 08:11:14;;;;;;;21.80;5.03;;;;;;;;;;5047473;28;20045;-72
2023/01/05 08:13:58;;;;;;;24.63;5.78;;;;;;;;;;5061974;28;20404;-72
2023/01/05 08:16:24;;;;;;;18.27;4.90;;;;;;;;;;5072768;28;20175;-72
2023/01/05 08:18:50;;;;;;;20.05;5.45;;;;;;;;;;5052006;28;20135;-72
2023/01/05 08:21:17;;;;;;;21.90;5.18;;;;;;;;;;5062068;28;20178;-71
2023/01/05 08:23:44;;;;;;;18.63;5.43;;;;;;;;;;5039258;28;20128;-72
2023/01/05 08:26:16;;;;;;;23.60;6.50;;;;;;;;;;5047787;28;20507;-72
2023/01/05 08:28:42;;;;;;;28.35;5.97;;;;;;;;;;5048302;28;20040;-72
2023/01/05 08:31:11;;;;;;;22.60;5.63;;;;;;;;;;5065841;28;20047;-72
2023/01/05 08:33:38;;;;;;;20.33;4.97;;;;;;;;;;5044479;28;20056;-72
2023/01/05 08:36:08;;;;;;;24.58;6.43;;;;;;;;;;5045373;28;20060;-72
2023/01/05 08:38:34;;;;;;;20.08;5.40;;;;;;;;;;5053538;28;20057;-72
2023/01/05 08:41:00;;;;;;;22.38;5.80;;;;;;;;;;5043966;28;20040;-72
2023/01/05 08:43:26;;;;;;;20.35;5.45;;;;;;;;;;5048364;28;20052;-72
2023/01/05 08:45:52;;;;;;;23.77;5.68;;;;;;;;;;5057710;28;20034;-72
2023/01/05 08:48:18;;;;;;;26.95;5.70;;;;;;;;;;5033845;28;20054;-73
2023/01/05 08:50:44;;;;;;;19.70;4.75;;;;;;;;;;5044973;28;20047;-72
2023/01/05 08:53:10;;;;;;;24.98;5.63;;;;;;;;;;5047258;28;20048;-73
2023/01/05 08:55:36;;;;;;;20.48;5.25;;;;;;;;;;5045312;28;20091;-71
2023/01/05 08:58:04;;;;;;;23.13;5.45;;;;;;;;;;5043813;28;20049;-72
2023/01/05 09:00:31;;;;;;;23.17;5.32;;;;;;;;;;5039227;28;20057;-72
2023/01/05 09:02:57;;;;;;;27.58;5.50;;;;;;;;;;5058302;28;20458;-72
2023/01/05 09:05:23;;;;;;;25.65;6.40;;;;;;;;;;5047379;28;20502;-74
2023/01/05 09:07:49;;;;;;;28.25;6.30;;;;;;;;;;5047737;28;20049;-73
2023/01/05 09:10:15;;;;;;;20.98;5.90;;;;;;;;;;5049637;28;20551;-73
2023/01/05 09:12:41;;;;;;;24.65;5.25;;;;;;;;;;5037626;28;20135;-73
2023/01/05 09:15:07;;;;;;;25.08;5.03;;;;;;;;;;5042306;28;20044;-73
2023/01/05 09:17:34;;;;;;;24.63;5.18;;;;;;;;;;5041466;28;20106;-72
2023/01/05 09:20:02;;;;;;;22.58;5.50;;;;;;;;;;5041542;28;20073;-72
2023/01/05 09:22:30;;;;;;;23.48;4.97;;;;;;;;;;5037269;28;20048;-73
2023/01/05 09:24:56;;;;;;;24.45;6.63;;;;;;;;;;5048481;28;20047;-73
2023/01/05 09:27:22;;;;;;;21.85;5.53;;;;;;;;;;5041513;28;20045;-72
2023/01/05 09:29:48;;;;;;;21.65;5.50;;;;;;;;;;5043690;28;20058;-72
2023/01/05 09:32:14;;;;;;;19.85;5.90;;;;;;;;;;5041099;28;20144;-73
2023/01/05 09:34:40;;;;;;;17.40;5.57;;;;;;;;;;5048679;28;20055;-74
2023/01/05 09:37:06;;;;;;;20.92;5.72;;;;;;;;;;5038755;28;20081;-74
2023/01/05 09:39:32;;;;;;;24.73;5.68;;;;;;;;;;5067214;28;20068;-74
2023/01/05 09:42:04;;;;;;;24.02;5.93;;;;;;;;;;5050496;28;20043;-74
2023/01/05 09:44:30;;;;;;;19.70;5.72;;;;;;;;;;5043740;28;20138;-74
2023/01/05 09:46:59;;;;;;;18.90;4.80;;;;;;;;;;5043768;28;20037;-74
2023/01/05 09:49:26;;;;;;;20.58;5.68;;;;;;;;;;5050693;28;20460;-75
2023/01/05 09:51:55;;;;;;;24.08;5.18;;;;;;;;;;5047318;28;20047;-74
2023/01/05 09:54:27;;;;;;;22.75;6.28;;;;;;;;;;5079216;28;20111;-74
2023/01/05 09:56:54;;;;;;;23.35;5.40;;;;;;;;;;5040188;28;20041;-74
2023/01/05 09:59:23;;;;;;;20.02;5.30;;;;;;;;;;5041362;28;20049;-75
2023/01/05 10:01:50;;;;;;;27.83;6.18;;;;;;;;;;5042886;28;20110;-75
2023/01/05 10:04:18;;;;;;;26.45;4.78;;;;;;;;;;5046217;28;20041;-74
2023/01/05 10:06:45;;;;;;;21.80;5.72;;;;;;;;;;5049760;28;20098;-71
2023/01/05 10:09:21;;;;;;;22.65;5.15;;;;;;;;;;5047856;28;20044;-71
2023/01/05 10:14:39;;;;;;;18.30;5.18;;;;;;;;;;5048451;28;20128;-71
2023/01/05 10:17:32;;;;;;;25.45;5.25;;;;;;;;;;5042744;28;20044;-72
2023/01/05 10:19:58;;;;;;;25.88;5.78;;;;;;;;;;5072341;28;20060;-71
2023/01/05 10:22:43;;;;;;;24.85;7.40;;;;;;;;;;5045410;28;20150;-70
2023/01/05 10:25:26;;;;;;;28.25;5.93;;;;;;;;;;5044757;28;20060;-72
2023/01/05 10:27:55;;;;;;;25.30;5.67;;;;;;;;;;5045506;28;20033;-71
2023/01/05 10:30:25;;;;;;;26.23;6.20;;;;;;;;;;5044544;28;20454;-71
2023/01/05 10:32:59;;;;;;;22.52;5.20;;;;;;;;;;5043999;28;20033;-71
2023/01/05 10:35:24;;;;;;;;;;;;;;;;;;5043322;28;20512;-72
2023/01/05 10:38:06;;;;;;;24.42;5.05;;;;;;;;;;5049600;28;20015;-72
2023/01/05 10:40:39;;;;;;;18.63;4.57;;;;;;;;;;5043750;28;20049;-74
2023/01/05 10:43:11;;;;;;;23.40;5.10;;;;;;;;;;5044954;28;20433;-72
2023/01/05 10:45:37;;;;;;;26.23;4.93;;;;;;;;;;5047388;28;20052;-73
2023/01/05 10:48:09;;;;;;;22.48;5.40;;;;;;;;;;5049728;28;20091;-72
2023/01/05 10:50:40;;;;;;;28.23;5.68;;;;;;;;;;5044801;28;20095;-72
2023/01/05 10:53:15;;;;;;;26.58;5.47;;;;;;;;;;5046544;28;20041;-72
2023/01/05 10:55:48;;;;;;;21.27;5.45;;;;;;;;;;5046161;28;20041;-74
2023/01/05 10:58:25;;;;;;;20.10;5.22;;;;;;;;;;5045808;28;20049;-74
2023/01/05 11:00:53;;;;;;;20.20;5.30;;;;;;;;;;5078516;28;20041;-73
2023/01/05 11:03:22;;;;;;;22.35;5.20;;;;;;;;;;5047749;28;20080;-74
2023/01/05 11:05:48;;;;;;;18.20;5.35;;;;;;;;;;5044102;28;20088;-73
2023/01/05 11:08:18;;;;;;;25.65;5.43;;;;;;;;;;5046923;28;20044;-73
2023/01/05 11:10:49;;;;;;;22.30;4.93;;;;;;;;;;5046235;28;20057;-69
2023/01/05 11:13:15;;;;;;;25.00;5.57;;;;;;;;;;5047209;28;20456;-70
2023/01/05 11:15:43;;;;;;;23.52;5.15;;;;;;;;;;5044905;28;20124;-72
2023/01/05 11:18:28;;;;;;;22.45;5.35;;;;;;;;;;5046493;28;20048;-73
2023/01/05 11:21:06;;;;;;;18.10;4.95;;;;;;;;;;5042808;28;20542;-72
2023/01/05 11:23:45;;;;;;;18.73;5.10;;;;;;;;;;5076457;28;20041;-72
2023/01/05 11:26:32;;;;;;;25.00;5.25;;;;;;;;;;5040905;28;20377;-72
2023/01/05 11:28:58;;;;;;;24.23;5.03;;;;;;;;;;5050711;28;20051;-71
2023/01/05 11:31:26;;;;;;;16.17;4.60;;;;;;;;;;5039861;28;20055;-71
2023/01/05 11:33:57;;;;;;;22.33;4.90;;;;;;;;;;5051930;28;20052;-73
2023/01/05 11:36:23;;;;;;;26.50;6.28;;;;;;;;;;5044440;28;20492;-75
2023/01/05 11:38:54;;;;;;;17.80;4.93;;;;;;;;;;5040462;28;20053;-73
2023/01/05 11:41:21;;;;;;;24.25;5.00;;;;;;;;;;5042468;28;20408;-73
2023/01/05 11:43:48;;;;;;;18.83;5.20;;;;;;;;;;5057490;28;20499;-73
2023/01/05 11:46:14;;;;;;;20.20;5.95;;;;;;;;;;5054942;28;20132;-73
2023/01/05 11:48:46;;;;;;;25.52;9.07;;;;;;;;;;5047791;28;20049;-73
2023/01/05 11:51:33;;;;;;;20.83;5.35;;;;;;;;;;5047808;28;20055;-73
2023/01/05 11:53:59;;;;;;;17.27;4.30;;;;;;;;;;5041730;28;20060;-73
2023/01/05 11:56:26;;;;;;;17.63;5.18;;;;;;;;;;5039464;28;20076;-73
2023/01/05 11:58:53;;;;;;;18.63;5.40;;;;;;;;;;5040476;28;20057;-73
2023/01/05 12:01:38;;;;;;;13.85;4.07;;;;;;;;;;5047927;28;20033;-77
2023/01/05 12:04:31;;;;;;;21.83;4.63;;;;;;;;;;5052758;28;20094;-76
2023/01/05 12:07:08;;;;;;;18.77;5.38;;;;;;;;;;5036965;28;20518;-74
2023/01/05 12:09:38;;;;;;;20.35;4.65;;;;;;;;;;5045065;28;20393;-76
2023/01/05 12:12:17;;;;;;;21.27;4.82;;;;;;;;;;5047837;28;20396;-76
2023/01/05 12:15:02;;;;;;;18.10;5.05;;;;;;;;;;5047412;28;20132;-75
2023/01/05 12:17:46;;;;;;;21.42;4.63;;;;;;;;;;5043512;28;20683;-74
2023/01/05 12:20:16;;;;;;;17.02;4.40;;;;;;;;;;5044757;28;20102;-76
2023/01/05 12:22:51;;;;;;;22.35;4.90;;;;;;;;;;5052123;28;20106;-77
2023/01/05 12:25:23;;;;;;;21.42;4.53;;;;;;;;;;5043873;28;20045;-75
2023/01/05 12:28:10;;;;;;;26.00;5.32;;;;;;;;;;5038523;28;20030;-77
2023/01/05 12:30:55;;;;;;;18.60;4.75;;;;;;;;;;5042900;28;20040;-76
2023/01/05 12:33:30;;;;;;;18.83;4.65;;;;;;;;;;5035558;28;20498;-73
2023/01/05 12:36:02;;;;;;;28.88;5.60;;;;;;;;;;5045323;28;20049;-73
2023/01/05 12:38:32;;;;;;;20.13;5.60;;;;;;;;;;5042199;28;20081;-72
2023/01/05 12:40:58;;;;;;;19.60;4.68;;;;;;;;;;5044558;28;20051;-72
2023/01/05 12:43:54;;;;;;;23.50;5.68;;;;;;;;;;5044033;28;20488;-72
2023/01/05 12:46:37;;;;;;;22.55;6.03;;;;;;;;;;5035702;28;20473;-72
2023/01/05 12:49:07;;;;;;;23.17;5.43;;;;;;;;;;5042381;28;20037;-72
2023/01/05 12:51:36;;;;;;;23.13;5.10;;;;;;;;;;5044653;28;20052;-75
2023/01/05 12:54:02;;;;;;;17.83;4.63;;;;;;;;;;5037498;28;20098;-76
2023/01/05 12:56:47;;;;;;;16.50;5.18;;;;;;;;;;5043589;28;20044;-75
2023/01/05 12:59:27;;;;;;;19.58;5.07;;;;;;;;;;5047584;28;20037;-76
2023/01/05 13:02:01;;;;;;;19.45;4.80;;;;;;;;;;5041659;28;20094;-75
2023/01/05 13:04:42;;;;;;;20.98;4.68;;;;;;;;;;5045797;28;20688;-73
2023/01/05 13:07:21;;;;;;;21.55;4.78;;;;;;;;;;5045860;28;20388;-73
2023/01/05 13:09:52;;;;;;;15.07;4.70;;;;;;;;;;5040999;28;20045;-73
2023/01/05 13:12:18;;;;;;;19.73;5.88;;;;;;;;;;5047845;28;20055;-73
2023/01/05 13:14:51;;;;;;;24.63;5.85;;;;;;;;;;5044924;28;20075;-73
2023/01/05 13:17:20;;;;;;;24.40;5.85;;;;;;;;;;5042769;28;20136;-73
2023/01/05 13:19:48;;;;;;;19.20;5.53;;;;;;;;;;5076168;28;20514;-73
2023/01/05 13:22:19;;;;;;;25.75;5.97;;;;;;;;;;5045216;28;20036;-73
2023/01/05 13:25:05;;;;;;;26.45;5.78;;;;;;;;;;5040158;28;20052;-76
2023/01/05 13:27:31;;;;;;;20.88;5.30;;;;;;;;;;5073781;28;20111;-78
2023/01/05 13:29:58;;;;;;;19.85;5.47;;;;;;;;;;5038792;28;20091;-75
2023/01/05 13:32:43;;;;;;;24.88;5.40;;;;;;;;;;5041800;28;20106;-76
2023/01/05 13:35:16;;;;;;;21.40;5.00;;;;;;;;;;5041537;28;20088;-77
2023/01/05 13:38:14;;;;;;;21.27;5.28;;;;;;;;;;5046907;28;20055;-76
2023/01/05 13:40:59;;;;;;;20.80;5.25;;;;;;;;;;5030943;28;20060;-74
2023/01/05 13:43:31;;;;;;;19.42;5.38;;;;;;;;;;5044768;28;20085;-75
2023/01/05 13:46:00;;;;;;;21.95;4.63;;;;;;;;;;5041163;28;20053;-73
2023/01/05 13:48:36;;;;;;;23.50;4.93;;;;;;;;;;5043328;28;20040;-73
2023/01/05 13:51:15;;;;;;;15.70;4.45;;;;;;;;;;5044082;28;20488;-72
2023/01/05 13:53:41;;;;;;;25.73;5.78;;;;;;;;;;5048789;28;20041;-74
2023/01/05 13:56:27;;;;;;;19.52;5.97;;;;;;;;;;5040356;28;20053;-74
2023/01/05 13:59:03;;;;;;;16.10;4.90;;;;;;;;;;5040782;28;20566;-73
2023/01/05 14:01:34;;;;;;;26.10;5.72;;;;;;;;;;5035653;28;20049;-73
2023/01/05 14:04:01;;;;;;;16.60;4.60;;;;;;;;;;5047756;28;20476;-78
2023/01/05 14:06:31;;;;;;;15.63;4.60;;;;;;;;;;5024781;28;20095;-76
2023/01/05 14:09:00;;;;;;;22.55;5.43;;;;;;;;;;5040957;28;20048;-75
2023/01/05 14:11:27;;;;;;;26.05;7.35;;;;;;;;;;5073355;28;20095;-74
2023/01/05 14:13:53;;;;;;;30.45;9.73;;;;;;;;;;5044645;28;20032;-74
2023/01/05 14:16:34;;;;;;;18.50;5.25;;;;;;;;;;5038310;28;20200;-72
2023/01/05 14:19:19;;;;;;;21.80;5.40;;;;;;;;;;5040076;28;20044;-73
2023/01/05 14:21:48;;;;;;;21.75;5.57;;;;;;;;;;5038149;28;20052;-72
2023/01/05 14:24:29;;;;;;;23.33;6.13;;;;;;;;;;5042181;28;20393;-72
2023/01/05 14:27:01;;;;;;;25.05;6.72;;;;;;;;;;5045833;28;20123;-72
2023/01/05 14:30:00;;;;;;;20.40;5.85;;;;;;;;;;5049895;28;21458;-75
2023/01/05 14:32:31;;;;;;;29.05;6.03;;;;;;;;;;5034354;28;20496;-76
2023/01/05 14:35:08;;;;;;;28.42;6.80;;;;;;;;;;5048430;28;20105;-80
2023/01/05 14:37:49;;;;;;;23.50;5.90;;;;;;;;;;5046859;28;20049;-79
2023/01/05 14:40:28;;;;;;;24.42;5.40;;;;;;;;;;5041341;28;20084;-81
2023/01/05 14:42:55;;;;;;;29.13;6.43;;;;;;;;;;5045534;28;20123;-80
2023/01/05 14:45:22;;;;;;;25.58;6.07;;;;;;;;;;5041998;28;20463;-81
2023/01/05 14:47:50;;;;;;;31.67;6.65;;;;;;;;;;5051816;28;20041;-86
2023/01/05 14:50:33;;;;;;;31.20;6.38;;;;;;;;;;5067653;28;20490;-77
2023/01/05 14:53:10;;;;;;;26.95;6.28;;;;;;;;;;5045132;28;20383;-75
2023/01/05 14:55:38;;;;;;;28.45;7.32;;;;;;;;;;5045680;28;20049;-74
2023/01/05 14:58:05;;;;;;;27.80;6.30;;;;;;;;;;5055132;28;20478;-75
2023/01/05 15:00:34;;;;;;;30.83;6.65;;;;;;;;;;5080944;28;20127;-75
2023/01/05 15:03:10;;;;;;;29.38;6.25;;;;;;;;;;5067472;28;20044;-74
2023/01/05 15:05:39;;;;;;;31.75;11.65;;;;;;;;;;5052630;28;20045;-73
2023/01/05 15:08:24;;;;;;;28.75;7.43;;;;;;;;;;5052943;28;20106;-74
2023/01/05 15:10:53;;;;;;;27.02;6.95;;;;;;;;;;5046065;28;20037;-70
2023/01/05 15:13:28;;;;;;;33.13;6.85;;;;;;;;;;5045652;28;20052;-75
2023/01/05 15:16:03;;;;;;;28.05;6.82;;;;;;;;;;5038442;28;20045;-75
2023/01/05 15:18:42;;;;;;;31.95;8.40;;;;;;;;;;5046398;28;20672;-75